createdAt,value
2022-08-14T00:00:44.201Z,9.55
2022-08-14T00:02:51.487Z,11.60
2022-08-14T00:04:59.376Z,12.95
2022-08-14T00:07:07.121Z,10.48
2022-08-14T00:09:14.770Z,11.48
2022-08-14T00:11:24.865Z,11.88
2022-08-14T00:13:33.026Z,10.05
2022-08-14T00:15:44.380Z,10.55
2022-08-14T00:17:57.570Z,11.07
2022-08-14T00:20:04.750Z,11.60
2022-08-14T00:22:13.327Z,9.75
2022-08-14T00:24:41.696Z,11.82
2022-08-14T00:26:49.234Z,11.18
2022-08-14T00:29:01.799Z,11.70
2022-08-14T00:31:11.185Z,11.70
2022-08-14T00:33:20.510Z,9.65
2022-08-14T00:36:35.040Z,12.30
2022-08-14T00:38:15.522Z,9.68
2022-08-14T00:40:33.652Z,8.70
2022-08-14T00:42:55.393Z,9.23
2022-08-14T00:45:03.850Z,9.18
2022-08-14T00:47:11.239Z,11.18
2022-08-14T00:49:21.128Z,7.32
2022-08-14T00:51:36.840Z,13.98
2022-08-14T00:53:45.799Z,8.30
2022-08-14T00:55:56.498Z,8.75
2022-08-14T00:58:17.462Z,9.10
2022-08-14T01:00:37.354Z,10.40
2022-08-14T01:02:54.807Z,7.63
2022-08-14T01:05:09.154Z,10.82
2022-08-14T01:07:21.977Z,7.88
2022-08-14T01:09:30.176Z,8.38
2022-08-14T01:11:37.713Z,9.38
2022-08-14T01:13:45.315Z,8.02
2022-08-14T01:16:04.588Z,10.88
2022-08-14T01:18:31.055Z,7.78
2022-08-14T01:20:56.574Z,8.35
2022-08-14T01:23:07.543Z,8.50
2022-08-14T01:25:17.178Z,8.18
2022-08-14T01:27:25.738Z,9.15
2022-08-14T01:30:01.001Z,9.77
2022-08-14T01:32:06.261Z,8.50
2022-08-14T01:35:19.904Z,7.80
2022-08-14T01:36:44.694Z,8.73
2022-08-14T01:38:57.815Z,8.93
2022-08-14T01:41:05.660Z,8.45
2022-08-14T01:43:26.553Z,8.70
2022-08-14T01:45:40.290Z,7.45
2022-08-14T01:47:48.041Z,8.52
2022-08-14T01:50:01.390Z,9.52
2022-08-14T01:52:13.374Z,8.30
2022-08-14T01:54:39.801Z,8.00
2022-08-14T01:56:47.185Z,10.93
2022-08-14T01:58:58.144Z,7.90
2022-08-14T02:01:06.298Z,9.07
2022-08-14T02:03:16.099Z,8.30
2022-08-14T02:05:24.512Z,8.23
2022-08-14T02:07:44.658Z,6.28
2022-08-14T02:10:02.385Z,5.68
2022-08-14T02:12:19.650Z,6.88
2022-08-14T02:14:34.251Z,9.98
2022-08-14T02:16:46.194Z,8.63
2022-08-14T02:18:58.240Z,8.45
2022-08-14T02:21:06.697Z,8.30
2022-08-14T02:23:14.191Z,7.38
2022-08-14T02:25:24.094Z,8.27
2022-08-14T02:28:23.039Z,8.80
2022-08-14T02:30:05.638Z,11.00
2022-08-14T02:32:30.040Z,9.30
2022-08-14T02:34:44.266Z,8.93
2022-08-14T02:37:04.182Z,9.18
2022-08-14T02:39:14.809Z,11.38
2022-08-14T02:41:28.395Z,7.72
2022-08-14T02:43:37.252Z,13.45
2022-08-14T02:45:53.971Z,9.90
2022-08-14T02:48:01.253Z,6.35
2022-08-14T02:50:10.428Z,6.30
2022-08-14T02:52:55.669Z,7.07
2022-08-14T02:54:44.910Z,7.85
2022-08-14T02:57:16.132Z,7.07
2022-08-14T02:59:23.547Z,5.65
2022-08-14T03:01:50.533Z,8.93
2022-08-14T03:03:59.208Z,6.15
2022-08-14T03:06:07.321Z,7.20
2022-08-14T03:08:19.083Z,5.82
2022-08-14T03:10:33.285Z,9.13
2022-08-14T03:12:42.633Z,9.30
2022-08-14T03:14:52.837Z,6.70
2022-08-14T03:17:00.013Z,6.22
2022-08-14T03:19:08.321Z,9.13
2022-08-14T03:23:26.372Z,8.30
2022-08-14T03:25:37.813Z,9.10
2022-08-14T03:30:06.345Z,8.50
2022-08-14T03:32:27.356Z,9.43
2022-08-14T03:34:52.963Z,8.70
2022-08-14T03:37:51.542Z,11.80
2022-08-14T03:39:30.208Z,9.27
2022-08-14T03:41:37.553Z,7.97
2022-08-14T03:43:57.806Z,10.68
2022-08-14T03:46:10.151Z,6.68
2022-08-14T03:48:41.260Z,6.65
2022-08-14T03:50:48.978Z,6.65
2022-08-14T03:52:57.319Z,8.00
2022-08-14T03:55:09.283Z,9.88
2022-08-14T03:57:16.513Z,9.30
2022-08-14T03:59:28.503Z,8.77
2022-08-14T04:01:39.054Z,7.85
2022-08-14T04:03:54.832Z,10.80
2022-08-14T04:06:02.031Z,8.25
2022-08-14T04:08:30.037Z,9.45
2022-08-14T04:10:38.259Z,9.45
2022-08-14T04:12:51.768Z,9.88
2022-08-14T04:15:01.016Z,7.95
2022-08-14T04:17:09.851Z,6.40
2022-08-14T04:19:18.502Z,10.35
2022-08-14T04:21:26.920Z,13.27
2022-08-14T04:23:34.871Z,11.50
2022-08-14T04:25:42.109Z,8.43
2022-08-14T04:28:02.183Z,6.72
2022-08-14T04:30:29.556Z,7.30
2022-08-14T04:33:10.488Z,10.65
2022-08-14T04:35:10.680Z,7.05
2022-08-14T04:37:35.113Z,10.07
2022-08-14T04:39:59.750Z,5.43
2022-08-14T04:42:26.806Z,10.50
2022-08-14T04:44:36.802Z,7.15
2022-08-14T04:47:08.300Z,8.25
2022-08-14T04:49:15.158Z,11.02
2022-08-14T04:51:27.799Z,7.95
2022-08-14T04:53:43.319Z,8.75
2022-08-14T04:55:51.801Z,7.03
2022-08-14T04:57:59.437Z,7.10
2022-08-14T05:00:08.040Z,9.93
2022-08-14T05:02:26.476Z,11.32
2022-08-14T05:04:35.860Z,8.57
2022-08-14T05:06:49.281Z,9.63
2022-08-14T05:08:59.883Z,11.23
2022-08-14T05:11:11.996Z,9.60
2022-08-14T05:13:24.578Z,6.82
2022-08-14T05:15:39.566Z,10.20
2022-08-14T05:17:58.741Z,6.70
2022-08-14T05:21:04.027Z,10.02
2022-08-14T05:22:43.443Z,8.15
2022-08-14T05:24:52.484Z,9.45
2022-08-14T05:27:00.238Z,7.22
2022-08-14T05:29:11.967Z,8.52
2022-08-14T05:31:21.214Z,8.32
2022-08-14T05:33:31.908Z,9.77
2022-08-14T05:35:39.242Z,6.53
2022-08-14T05:37:51.292Z,7.50
2022-08-14T05:39:58.634Z,7.85
2022-08-14T05:42:10.019Z,12.70
2022-08-14T05:44:30.848Z,8.57
2022-08-14T05:46:38.346Z,11.32
2022-08-14T05:48:47.265Z,6.72
2022-08-14T05:50:56.489Z,8.85
2022-08-14T05:53:03.986Z,7.72
2022-08-14T05:55:13.148Z,8.07
2022-08-14T05:57:20.349Z,8.70
2022-08-14T05:59:36.676Z,6.32
2022-08-14T06:01:46.832Z,8.73
2022-08-14T06:03:59.716Z,9.52
2022-08-14T06:06:07.608Z,10.20
2022-08-14T06:08:35.593Z,8.15
2022-08-14T06:10:49.721Z,6.75
2022-08-14T06:12:57.956Z,15.40
2022-08-14T06:15:05.672Z,18.98
2022-08-14T06:17:25.870Z,13.52
2022-08-14T06:19:35.552Z,11.82
2022-08-14T06:21:42.838Z,14.10
2022-08-14T06:23:50.136Z,9.15
2022-08-14T06:25:57.809Z,9.85
2022-08-14T06:28:05.404Z,12.88
2022-08-14T06:30:45.831Z,16.30
2022-08-14T06:32:55.907Z,11.73
2022-08-14T06:35:12.920Z,7.50
2022-08-14T06:37:20.569Z,11.90
2022-08-14T06:39:37.487Z,9.63
2022-08-14T06:41:58.006Z,8.68
2022-08-14T06:44:06.737Z,7.68
2022-08-14T06:46:23.226Z,8.93
2022-08-14T06:48:40.042Z,7.47
2022-08-14T06:50:51.275Z,7.88
2022-08-14T06:52:59.530Z,7.38
2022-08-14T06:55:06.914Z,7.07
2022-08-14T06:57:15.228Z,10.48
2022-08-14T06:59:22.405Z,7.70
2022-08-14T07:01:46.356Z,10.82
2022-08-14T07:04:21.017Z,7.55
2022-08-14T07:06:45.492Z,7.13
2022-08-14T07:08:54.211Z,7.28
2022-08-14T07:11:05.475Z,6.40
2022-08-14T07:13:13.384Z,9.25
2022-08-14T07:15:20.873Z,8.38
2022-08-14T07:17:28.215Z,8.00
2022-08-14T07:19:39.339Z,7.88
2022-08-14T07:21:48.923Z,8.10
2022-08-14T07:23:57.533Z,8.90
2022-08-14T07:26:07.738Z,7.15
2022-08-14T07:28:21.141Z,10.85
2022-08-14T07:30:34.478Z,8.77
2022-08-14T07:32:42.039Z,10.13
2022-08-14T07:34:49.323Z,7.55
2022-08-14T07:37:01.284Z,8.85
2022-08-14T07:39:12.361Z,10.15
2022-08-14T07:41:20.594Z,9.27
2022-08-14T07:43:29.358Z,7.32
2022-08-14T07:45:38.078Z,8.38
2022-08-14T07:47:46.436Z,6.75
2022-08-14T07:50:02.940Z,7.80
2022-08-14T07:52:11.705Z,7.43
2022-08-14T07:54:23.681Z,9.00
2022-08-14T07:56:46.669Z,7.13
2022-08-14T07:58:58.346Z,9.88
2022-08-14T08:01:06.087Z,9.32
2022-08-14T08:03:17.212Z,7.95
2022-08-14T08:05:30.842Z,9.75
2022-08-14T08:07:40.792Z,7.47
2022-08-14T08:09:53.414Z,10.35
2022-08-14T08:12:00.934Z,7.88
2022-08-14T08:14:17.311Z,6.50
2022-08-14T08:16:25.694Z,10.10
2022-08-14T08:18:36.205Z,8.23
2022-08-14T08:20:53.303Z,10.57
2022-08-14T08:23:06.291Z,6.97
2022-08-14T08:25:17.932Z,11.68
2022-08-14T08:27:25.409Z,9.98
2022-08-14T08:29:32.438Z,9.88
2022-08-14T08:31:52.111Z,9.82
2022-08-14T08:34:00.986Z,8.52
2022-08-14T08:36:12.784Z,9.75
2022-08-14T08:39:16.953Z,10.73
2022-08-14T08:40:59.986Z,14.15
2022-08-14T08:43:09.077Z,11.73
2022-08-14T08:45:19.689Z,9.25
2022-08-14T08:47:26.782Z,8.48
2022-08-14T08:49:48.806Z,9.80
2022-08-14T08:52:07.053Z,9.20
2022-08-14T08:54:33.380Z,7.25
2022-08-14T08:56:43.165Z,11.35
2022-08-14T08:58:51.789Z,7.30
2022-08-14T09:01:01.209Z,8.15
2022-08-14T09:03:10.649Z,9.93
2022-08-14T09:05:18.139Z,11.13
2022-08-14T09:07:30.529Z,12.43
2022-08-14T09:09:53.654Z,12.23
2022-08-14T09:12:13.854Z,8.43
2022-08-14T09:14:22.603Z,8.00
2022-08-14T09:16:30.406Z,12.80
2022-08-14T09:18:40.554Z,7.32
2022-08-14T09:20:50.956Z,8.93
2022-08-14T09:22:59.622Z,8.70
2022-08-14T09:25:09.515Z,9.05
2022-08-14T09:27:22.515Z,8.93
2022-08-14T09:29:31.709Z,8.50
2022-08-14T09:31:42.693Z,7.93
2022-08-14T09:34:27.364Z,11.15
2022-08-14T09:36:45.492Z,6.90
2022-08-14T09:39:14.755Z,9.30
2022-08-14T09:42:20.509Z,8.48
2022-08-14T09:44:33.094Z,8.77
2022-08-14T09:46:49.882Z,8.18
2022-08-14T09:49:04.046Z,9.32
2022-08-14T09:51:22.442Z,7.95
2022-08-14T09:54:17.848Z,12.93
2022-08-14T09:56:11.542Z,9.95
2022-08-14T09:58:42.560Z,6.82
2022-08-14T10:00:52.833Z,10.85
2022-08-14T10:03:05.359Z,8.68
2022-08-14T10:05:14.459Z,10.25
2022-08-14T10:07:32.648Z,10.15
2022-08-14T10:09:59.440Z,11.75
2022-08-14T10:12:13.295Z,8.20
2022-08-14T10:14:36.039Z,12.38
2022-08-14T10:16:46.887Z,13.38
2022-08-14T10:19:04.259Z,12.00
2022-08-14T10:21:20.903Z,10.02
2022-08-14T10:23:35.041Z,11.02
2022-08-14T10:25:47.052Z,14.73
2022-08-14T10:28:02.842Z,13.88
2022-08-14T10:30:22.512Z,12.00
2022-08-14T10:32:41.809Z,12.13
2022-08-14T10:35:13.321Z,10.80
2022-08-14T10:37:23.734Z,11.75
2022-08-14T10:39:36.592Z,10.25
2022-08-14T10:41:48.486Z,13.38
2022-08-14T10:44:20.887Z,13.38
2022-08-14T10:47:37.878Z,14.57
2022-08-14T10:49:10.764Z,13.23
2022-08-14T10:51:29.943Z,13.25
2022-08-14T10:53:40.146Z,14.63
2022-08-14T10:55:48.835Z,13.40
2022-08-14T10:57:58.884Z,13.65
2022-08-14T11:00:20.871Z,12.45
2022-08-14T11:02:54.064Z,13.07
2022-08-14T11:05:08.714Z,15.93
2022-08-14T11:07:21.411Z,14.48
2022-08-14T11:09:31.650Z,16.58
2022-08-14T11:11:47.522Z,15.00
2022-08-14T11:14:02.222Z,17.27
2022-08-14T11:16:11.348Z,13.60
2022-08-14T11:18:30.161Z,15.18
2022-08-14T11:20:41.121Z,14.13
2022-08-14T11:23:03.081Z,14.57
2022-08-14T11:25:12.688Z,14.30
2022-08-14T11:27:27.063Z,13.10
2022-08-14T11:29:41.593Z,16.40
2022-08-14T11:31:51.760Z,14.20
2022-08-14T11:36:18.425Z,15.77
2022-08-14T11:38:27.058Z,16.15
2022-08-14T11:40:36.238Z,13.10
2022-08-14T11:42:56.511Z,14.30
2022-08-14T11:45:11.089Z,13.27
2022-08-14T11:47:20.736Z,15.13
2022-08-14T11:49:34.304Z,12.93
2022-08-14T11:51:53.821Z,18.10
2022-08-14T11:54:08.434Z,14.35
2022-08-14T11:56:15.869Z,12.18
2022-08-14T11:58:30.534Z,13.98
2022-08-14T12:00:48.999Z,15.93
2022-08-14T12:03:02.526Z,11.25
2022-08-14T12:05:13.858Z,11.48
2022-08-14T12:07:23.929Z,14.85
2022-08-14T12:09:35.566Z,15.43
2022-08-14T12:11:47.377Z,13.20
2022-08-14T12:13:58.788Z,15.05
2022-08-14T12:16:11.236Z,13.75
2022-08-14T12:18:35.586Z,14.00
2022-08-14T12:20:52.702Z,15.98
2022-08-14T12:23:08.017Z,12.63
2022-08-14T12:25:17.552Z,17.20
2022-08-14T12:27:26.166Z,16.15
2022-08-14T12:29:37.596Z,14.85
2022-08-14T12:31:50.409Z,13.43
2022-08-14T12:36:22.695Z,12.85
2022-08-14T12:38:43.637Z,14.18
2022-08-14T12:40:52.479Z,15.23
2022-08-14T12:43:05.183Z,13.20
2022-08-14T12:45:17.278Z,13.85
2022-08-14T12:47:32.557Z,13.07
2022-08-14T12:49:40.237Z,12.77
2022-08-14T12:52:00.636Z,13.00
2022-08-14T12:54:26.137Z,14.55
2022-08-14T12:56:36.010Z,13.95
2022-08-14T12:58:51.981Z,11.38
2022-08-14T13:01:17.293Z,12.65
2022-08-14T13:03:28.873Z,15.38
2022-08-14T13:05:37.738Z,14.10
2022-08-14T13:07:48.449Z,12.38
2022-08-14T13:09:59.835Z,14.98
2022-08-14T13:12:32.660Z,13.00
2022-08-14T13:14:36.419Z,10.40
2022-08-14T13:16:44.926Z,12.82
2022-08-14T13:19:00.009Z,16.55
2022-08-14T13:21:08.455Z,15.90
2022-08-14T13:23:30.510Z,12.77
2022-08-14T13:25:41.820Z,13.10
2022-08-14T13:28:02.833Z,14.35
2022-08-14T13:30:21.180Z,17.48
2022-08-14T13:32:31.467Z,16.13
2022-08-14T13:34:40.031Z,13.63
2022-08-14T13:36:54.605Z,16.27
2022-08-14T13:39:07.860Z,15.25
2022-08-14T13:41:15.810Z,20.73
2022-08-14T13:43:23.770Z,18.25
2022-08-14T13:45:34.218Z,16.25
2022-08-14T13:47:59.472Z,18.92
2022-08-14T13:50:10.136Z,16.45
2022-08-14T13:52:52.176Z,18.75
2022-08-14T13:54:54.881Z,16.98
2022-08-14T13:57:05.165Z,19.50
2022-08-14T13:59:12.817Z,19.40
2022-08-14T14:01:33.884Z,19.85
2022-08-14T14:03:47.601Z,18.02
2022-08-14T14:05:57.086Z,21.13
2022-08-14T14:08:04.628Z,17.67
2022-08-14T14:10:17.811Z,17.85
2022-08-14T14:12:41.545Z,18.67
2022-08-14T14:14:51.879Z,20.08
2022-08-14T14:17:03.100Z,19.08
2022-08-14T14:19:14.161Z,17.45
2022-08-14T14:21:22.891Z,19.55
2022-08-14T14:23:30.378Z,20.65
2022-08-14T14:25:51.096Z,21.02
2022-08-14T14:28:05.436Z,15.90
2022-08-14T14:30:46.147Z,21.67
2022-08-14T14:33:01.964Z,17.17
2022-08-14T14:35:14.588Z,20.90
2022-08-14T14:37:25.251Z,16.75
2022-08-14T14:39:37.849Z,19.52
2022-08-14T14:41:56.030Z,18.23
2022-08-14T14:44:03.757Z,20.85
2022-08-14T14:46:16.827Z,23.67
2022-08-14T14:48:27.076Z,23.00
2022-08-14T14:52:44.962Z,21.75
2022-08-14T14:55:01.463Z,20.85
2022-08-14T14:57:16.798Z,18.98
2022-08-14T14:59:26.999Z,20.35
2022-08-14T15:01:38.055Z,20.00
2022-08-14T15:03:47.137Z,20.60
2022-08-14T15:05:55.191Z,17.50
2022-08-14T15:08:03.138Z,20.55
2022-08-14T15:10:27.597Z,24.67
2022-08-14T15:12:55.895Z,21.02
2022-08-14T15:15:08.517Z,23.10
2022-08-14T15:17:16.617Z,22.90
2022-08-14T15:19:24.464Z,25.45
2022-08-14T15:21:31.902Z,24.05
2022-08-14T15:23:44.814Z,29.30
2022-08-14T15:25:53.266Z,28.60
2022-08-14T15:28:02.712Z,29.55
2022-08-14T15:32:31.105Z,26.02
2022-08-14T15:34:48.678Z,26.42
2022-08-14T15:36:58.779Z,24.92
2022-08-14T15:39:05.859Z,27.83
2022-08-14T15:41:13.252Z,23.85
2022-08-14T15:43:27.355Z,24.95
2022-08-14T15:45:38.214Z,22.33
2022-08-14T15:47:45.338Z,23.92
2022-08-14T15:49:56.329Z,22.40
2022-08-14T15:52:08.311Z,23.35
2022-08-14T15:54:17.585Z,24.43
2022-08-14T15:56:43.070Z,27.45
2022-08-14T15:58:52.530Z,26.05
2022-08-14T16:01:31.222Z,28.52
2022-08-14T16:03:46.319Z,24.48
2022-08-14T16:05:54.010Z,23.88
2022-08-14T16:08:01.251Z,25.83
2022-08-14T16:10:29.249Z,28.13
2022-08-14T16:12:41.565Z,28.73
2022-08-14T16:14:55.195Z,31.25
2022-08-14T16:17:02.567Z,33.97
2022-08-14T16:19:11.445Z,33.67
2022-08-14T16:21:20.531Z,29.90
2022-08-14T16:23:35.950Z,34.63
2022-08-14T16:25:45.439Z,30.55
2022-08-14T16:27:53.133Z,32.08
2022-08-14T16:30:04.361Z,29.73
2022-08-14T16:32:33.418Z,31.90
2022-08-14T16:34:46.112Z,30.65
2022-08-14T16:36:58.161Z,31.88
2022-08-14T16:39:07.749Z,30.13
2022-08-14T16:41:23.069Z,29.90
2022-08-14T16:43:30.835Z,29.48
2022-08-14T16:45:43.741Z,27.27
2022-08-14T16:47:51.219Z,27.60
2022-08-14T16:50:04.544Z,30.02
2022-08-14T16:52:25.780Z,25.42
2022-08-14T16:54:44.424Z,30.67
2022-08-14T16:56:51.805Z,27.20
2022-08-14T16:59:12.444Z,25.92
2022-08-14T17:01:25.146Z,26.45
2022-08-14T17:03:40.861Z,27.38
2022-08-14T17:05:49.351Z,24.70
2022-08-14T17:08:31.781Z,25.50
2022-08-14T17:11:09.965Z,23.60
2022-08-14T17:13:27.396Z,23.50
2022-08-14T17:16:08.116Z,24.40
2022-08-14T17:18:22.430Z,27.45
2022-08-14T17:21:00.295Z,23.27
2022-08-14T17:23:11.115Z,27.50
2022-08-14T17:25:18.590Z,24.40
2022-08-14T17:27:29.939Z,28.30
2022-08-14T17:29:39.477Z,32.90
2022-08-14T17:32:03.405Z,30.17
2022-08-14T17:34:18.424Z,25.15
2022-08-14T17:36:27.028Z,28.52
2022-08-14T17:38:40.046Z,28.23
2022-08-14T17:43:14.287Z,26.92
2022-08-14T17:45:27.060Z,28.40
2022-08-14T17:47:35.448Z,24.80
2022-08-14T17:49:52.689Z,26.77
2022-08-14T17:52:07.746Z,26.25
2022-08-14T17:54:34.760Z,27.05
2022-08-14T17:56:42.112Z,24.60
2022-08-14T17:58:53.800Z,24.60
2022-08-14T18:01:04.662Z,24.80
2022-08-14T18:03:44.547Z,21.88
2022-08-14T18:06:07.019Z,24.13
2022-08-14T18:08:32.202Z,24.58
2022-08-14T18:10:55.306Z,23.33
2022-08-14T18:13:06.536Z,21.33
2022-08-14T18:15:17.774Z,22.70
2022-08-14T18:17:25.105Z,21.42
2022-08-14T18:19:36.240Z,21.70
2022-08-14T18:21:57.289Z,23.02
2022-08-14T18:24:04.926Z,25.13
2022-08-14T18:26:37.667Z,20.90
2022-08-14T18:28:52.153Z,21.77
2022-08-14T18:31:41.912Z,19.95
2022-08-14T18:33:57.811Z,19.88
2022-08-14T18:36:47.702Z,20.98
2022-08-14T18:38:45.747Z,21.50
2022-08-14T18:41:36.936Z,21.77
2022-08-14T18:43:59.229Z,21.65
2022-08-14T18:46:06.920Z,21.83
2022-08-14T18:48:51.003Z,20.58
2022-08-14T18:51:03.070Z,19.80
2022-08-14T18:53:15.301Z,19.60
2022-08-14T18:55:54.504Z,21.95
2022-08-14T18:58:30.371Z,22.17
2022-08-14T19:00:58.780Z,20.15
2022-08-14T19:03:06.939Z,21.10
2022-08-14T19:05:15.506Z,23.55
2022-08-14T19:07:23.146Z,26.63
2022-08-14T19:09:57.802Z,18.67
2022-08-14T19:12:07.659Z,21.10
2022-08-14T19:14:49.759Z,23.90
2022-08-14T19:16:57.863Z,21.65
2022-08-14T19:19:07.729Z,21.88
2022-08-14T19:21:29.727Z,20.17
2022-08-14T19:23:59.272Z,21.33
2022-08-14T19:26:36.340Z,25.02
2022-08-14T19:28:49.655Z,21.08
2022-08-14T19:31:37.088Z,22.80
2022-08-14T19:33:56.343Z,19.67
2022-08-14T19:36:29.224Z,23.25
2022-08-14T19:38:59.186Z,21.40
2022-08-14T19:41:17.083Z,20.75
2022-08-14T19:43:56.581Z,20.23
2022-08-14T19:45:59.400Z,22.73
2022-08-14T19:48:14.112Z,21.52
2022-08-14T19:50:38.372Z,20.95
2022-08-14T19:52:48.076Z,21.67
2022-08-14T19:54:55.984Z,21.05
2022-08-14T19:57:03.726Z,19.73
2022-08-14T19:59:11.308Z,20.10
2022-08-14T20:01:37.642Z,19.67
2022-08-14T20:04:00.137Z,22.17
2022-08-14T20:06:10.940Z,19.55
2022-08-14T20:10:59.555Z,20.75
2022-08-14T20:11:06.715Z,15.85
2022-08-14T20:13:14.732Z,16.80
2022-08-14T20:15:47.335Z,18.90
2022-08-14T20:17:56.643Z,18.23
2022-08-14T20:20:06.677Z,20.33
2022-08-14T20:22:36.629Z,20.85
2022-08-14T20:24:43.229Z,16.50
2022-08-14T20:27:12.370Z,18.40
2022-08-14T20:29:38.814Z,17.52
2022-08-14T20:31:46.653Z,17.55
2022-08-14T20:34:24.337Z,17.00
2022-08-14T20:36:32.769Z,18.92
2022-08-14T20:38:39.940Z,16.98
2022-08-14T20:40:59.205Z,17.83
2022-08-14T20:43:25.310Z,15.90
2022-08-14T20:45:45.569Z,18.00
2022-08-14T20:48:07.256Z,17.75
2022-08-14T20:50:25.113Z,20.23
2022-08-14T20:52:36.357Z,20.70
2022-08-14T20:54:50.717Z,23.65
2022-08-14T20:56:58.251Z,23.95
2022-08-14T20:59:18.027Z,21.35
2022-08-14T21:01:39.646Z,19.15
2022-08-14T21:03:57.854Z,21.00
2022-08-14T21:06:17.235Z,18.52
2022-08-14T21:10:44.461Z,20.05
2022-08-14T21:13:25.385Z,18.23
2022-08-14T21:15:21.503Z,19.88
2022-08-14T21:17:30.682Z,17.25
2022-08-14T21:19:38.373Z,21.48
2022-08-14T21:21:54.973Z,20.20
2022-08-14T21:24:02.772Z,19.10
2022-08-14T21:26:15.892Z,19.70
2022-08-14T21:28:43.657Z,20.42
2022-08-14T21:30:54.116Z,18.73
2022-08-14T21:33:03.755Z,19.70
2022-08-14T21:35:14.576Z,20.98
2022-08-14T21:37:24.828Z,21.20
2022-08-14T21:39:37.747Z,19.83
2022-08-14T21:41:50.406Z,20.88
2022-08-14T21:44:17.797Z,17.58
2022-08-14T21:46:27.449Z,17.25
2022-08-14T21:48:36.935Z,18.42
2022-08-14T21:51:00.368Z,18.55
2022-08-14T21:53:12.199Z,17.05
2022-08-14T21:55:23.922Z,18.33
2022-08-14T21:58:03.899Z,18.73
2022-08-14T22:00:30.205Z,19.38
2022-08-14T22:02:33.495Z,17.88
2022-08-14T22:04:43.481Z,17.73
2022-08-14T22:06:51.493Z,21.70
2022-08-14T22:08:59.405Z,30.27
2022-08-14T22:11:09.694Z,29.50
2022-08-14T22:13:18.936Z,31.70
2022-08-14T22:15:26.517Z,32.55
2022-08-14T22:17:35.134Z,24.80
2022-08-14T22:19:54.678Z,23.20
2022-08-14T22:22:03.165Z,22.50
2022-08-14T22:24:11.645Z,23.05
2022-08-14T22:26:21.810Z,22.52
2022-08-14T22:28:32.809Z,20.10
2022-08-14T22:30:41.783Z,19.67
2022-08-14T22:32:56.630Z,21.00
2022-08-14T22:35:09.035Z,18.50
2022-08-14T22:37:16.375Z,17.75
2022-08-14T22:40:17.571Z,18.17
2022-08-14T22:41:55.651Z,21.50
2022-08-14T22:44:06.479Z,21.17
2022-08-14T22:46:14.953Z,17.35
2022-08-14T22:48:23.272Z,18.25
2022-08-14T22:50:33.777Z,18.27
2022-08-14T22:52:41.061Z,21.73
2022-08-14T22:54:56.590Z,22.33
2022-08-14T22:57:07.198Z,19.00
2022-08-14T22:59:17.602Z,20.23
2022-08-14T23:01:56.867Z,19.08
2022-08-14T23:07:03.466Z,16.70
2022-08-14T23:09:02.209Z,20.75
2022-08-14T23:11:13.174Z,18.25
2022-08-14T23:13:20.524Z,22.13
2022-08-14T23:15:30.288Z,19.95
2022-08-14T23:17:39.584Z,18.90
2022-08-14T23:19:47.797Z,21.13
2022-08-14T23:21:58.154Z,21.70
2022-08-14T23:24:05.482Z,21.33
2022-08-14T23:26:48.882Z,24.25
2022-08-14T23:28:58.279Z,22.25
2022-08-14T23:31:08.440Z,23.33
2022-08-14T23:33:20.696Z,23.15
2022-08-14T23:39:49.497Z,18.42
2022-08-14T23:42:03.909Z,20.77
2022-08-14T23:44:11.709Z,19.58
2022-08-14T23:46:22.526Z,21.50
2022-08-14T23:48:44.554Z,21.88
2022-08-14T23:50:56.149Z,21.10
2022-08-14T23:53:07.580Z,26.40
2022-08-14T23:55:15.885Z,21.83
2022-08-14T23:57:23.063Z,24.90
2022-08-14T23:59:36.593Z,25.30
